sensor_id;sensor_type;location;lat;lon;timestamp;P1;durP1;ratioP1;P2;durP2;ratioP2
59008;SDS011;44794;42.652;23.318;2023-04-03T00:00:40;5.28;;;3.67;;
59008;SDS011;44794;42.652;23.318;2023-04-03T00:03:05;5.13;;;3.45;;
59008;SDS011;44794;42.652;23.318;2023-04-03T00:05:31;6.50;;;3.20;;
59008;SDS011;44794;42.652;23.318;2023-04-03T00:07:57;7.03;;;4.03;;
59008;SDS011;44794;42.652;23.318;2023-04-03T00:10:22;6.53;;;3.88;;
59008;SDS011;44794;42.652;23.318;2023-04-03T00:12:48;6.07;;;3.72;;
59008;SDS011;44794;42.652;23.318;2023-04-03T00:15:13;5.40;;;3.67;;
59008;SDS011;44794;42.652;23.318;2023-04-03T00:17:39;5.57;;;3.47;;
59008;SDS011;44794;42.652;23.318;2023-04-03T00:20:04;7.00;;;3.85;;
59008;SDS011;44794;42.652;23.318;2023-04-03T00:22:30;5.30;;;3.50;;
59008;SDS011;44794;42.652;23.318;2023-04-03T00:24:56;5.07;;;3.63;;
59008;SDS011;44794;42.652;23.318;2023-04-03T00:27:21;5.35;;;3.65;;
59008;SDS011;44794;42.652;23.318;2023-04-03T00:29:47;6.80;;;4.05;;
59008;SDS011;44794;42.652;23.318;2023-04-03T00:32:13;5.13;;;3.25;;
59008;SDS011;44794;42.652;23.318;2023-04-03T00:34:38;5.88;;;3.78;;
59008;SDS011;44794;42.652;23.318;2023-04-03T00:37:04;4.65;;;3.50;;
59008;SDS011;44794;42.652;23.318;2023-04-03T00:39:29;4.72;;;3.72;;
59008;SDS011;44794;42.652;23.318;2023-04-03T00:41:55;8.05;;;3.72;;
59008;SDS011;44794;42.652;23.318;2023-04-03T00:46:58;6.03;;;3.47;;
59008;SDS011;44794;42.652;23.318;2023-04-03T00:49:24;7.28;;;4.55;;
59008;SDS011;44794;42.652;23.318;2023-04-03T00:51:51;21.75;;;10.85;;
59008;SDS011;44794;42.652;23.318;2023-04-03T00:54:16;9.25;;;5.25;;
59008;SDS011;44794;42.652;23.318;2023-04-03T00:56:42;7.78;;;4.80;;
59008;SDS011;44794;42.652;23.318;2023-04-03T01:01:36;6.38;;;4.30;;
59008;SDS011;44794;42.652;23.318;2023-04-03T01:04:02;5.72;;;3.63;;
59008;SDS011;44794;42.652;23.318;2023-04-03T01:06:32;7.13;;;4.20;;
59008;SDS011;44794;42.652;23.318;2023-04-03T01:09:00;7.85;;;4.32;;
59008;SDS011;44794;42.652;23.318;2023-04-03T01:11:26;6.18;;;4.30;;
59008;SDS011;44794;42.652;23.318;2023-04-03T01:13:52;5.95;;;4.05;;
59008;SDS011;44794;42.652;23.318;2023-04-03T01:16:18;6.25;;;4.20;;
59008;SDS011;44794;42.652;23.318;2023-04-03T01:18:44;6.47;;;4.22;;
59008;SDS011;44794;42.652;23.318;2023-04-03T01:21:21;6.85;;;4.40;;
59008;SDS011;44794;42.652;23.318;2023-04-03T01:24:36;9.52;;;4.90;;
59008;SDS011;44794;42.652;23.318;2023-04-03T01:27:04;7.70;;;5.50;;
59008;SDS011;44794;42.652;23.318;2023-04-03T01:29:31;6.63;;;4.90;;
59008;SDS011;44794;42.652;23.318;2023-04-03T01:31:57;7.10;;;5.20;;
59008;SDS011;44794;42.652;23.318;2023-04-03T01:34:25;6.68;;;4.70;;
59008;SDS011;44794;42.652;23.318;2023-04-03T01:36:52;8.48;;;5.05;;
59008;SDS011;44794;42.652;23.318;2023-04-03T01:39:18;7.28;;;4.47;;
59008;SDS011;44794;42.652;23.318;2023-04-03T01:41:44;7.13;;;4.57;;
59008;SDS011;44794;42.652;23.318;2023-04-03T01:44:10;8.02;;;4.90;;
59008;SDS011;44794;42.652;23.318;2023-04-03T01:46:35;8.10;;;4.57;;
59008;SDS011;44794;42.652;23.318;2023-04-03T01:49:02;8.55;;;4.97;;
59008;SDS011;44794;42.652;23.318;2023-04-03T01:51:28;6.93;;;5.00;;
59008;SDS011;44794;42.652;23.318;2023-04-03T01:53:54;7.13;;;4.70;;
59008;SDS011;44794;42.652;23.318;2023-04-03T01:56:19;7.45;;;5.15;;
59008;SDS011;44794;42.652;23.318;2023-04-03T01:58:45;7.20;;;4.95;;
59008;SDS011;44794;42.652;23.318;2023-04-03T02:01:10;7.32;;;5.15;;
59008;SDS011;44794;42.652;23.318;2023-04-03T02:03:36;6.80;;;4.85;;
59008;SDS011;44794;42.652;23.318;2023-04-03T02:06:01;7.22;;;4.60;;
59008;SDS011;44794;42.652;23.318;2023-04-03T02:08:27;8.70;;;5.03;;
59008;SDS011;44794;42.652;23.318;2023-04-03T02:10:53;7.28;;;4.90;;
59008;SDS011;44794;42.652;23.318;2023-04-03T02:13:18;7.70;;;5.22;;
59008;SDS011;44794;42.652;23.318;2023-04-03T02:15:44;8.55;;;5.07;;
59008;SDS011;44794;42.652;23.318;2023-04-03T02:18:10;8.27;;;5.20;;
59008;SDS011;44794;42.652;23.318;2023-04-03T02:20:36;8.95;;;5.55;;
59008;SDS011;44794;42.652;23.318;2023-04-03T02:23:01;11.98;;;9.40;;
59008;SDS011;44794;42.652;23.318;2023-04-03T02:25:27;8.32;;;6.10;;
59008;SDS011;44794;42.652;23.318;2023-04-03T02:27:53;8.20;;;5.85;;
59008;SDS011;44794;42.652;23.318;2023-04-03T02:30:18;8.13;;;5.82;;
59008;SDS011;44794;42.652;23.318;2023-04-03T02:32:44;8.82;;;5.90;;
59008;SDS011;44794;42.652;23.318;2023-04-03T02:35:10;7.57;;;5.70;;
59008;SDS011;44794;42.652;23.318;2023-04-03T02:37:36;8.15;;;5.47;;
59008;SDS011;44794;42.652;23.318;2023-04-03T02:40:02;10.02;;;6.53;;
59008;SDS011;44794;42.652;23.318;2023-04-03T02:42:28;10.38;;;6.57;;
59008;SDS011;44794;42.652;23.318;2023-04-03T02:44:54;8.63;;;5.55;;
59008;SDS011;44794;42.652;23.318;2023-04-03T02:47:20;8.00;;;6.05;;
59008;SDS011;44794;42.652;23.318;2023-04-03T02:49:45;8.90;;;6.32;;
59008;SDS011;44794;42.652;23.318;2023-04-03T02:52:11;12.13;;;7.10;;
59008;SDS011;44794;42.652;23.318;2023-04-03T02:54:37;10.75;;;6.78;;
59008;SDS011;44794;42.652;23.318;2023-04-03T02:57:03;10.50;;;7.00;;
59008;SDS011;44794;42.652;23.318;2023-04-03T02:59:28;10.55;;;6.97;;
59008;SDS011;44794;42.652;23.318;2023-04-03T03:01:54;8.32;;;6.15;;
59008;SDS011;44794;42.652;23.318;2023-04-03T03:04:20;8.93;;;6.28;;
59008;SDS011;44794;42.652;23.318;2023-04-03T03:06:46;9.07;;;6.63;;
59008;SDS011;44794;42.652;23.318;2023-04-03T03:09:12;10.75;;;6.85;;
59008;SDS011;44794;42.652;23.318;2023-04-03T03:11:38;12.00;;;6.50;;
59008;SDS011;44794;42.652;23.318;2023-04-03T03:14:03;10.77;;;6.82;;
59008;SDS011;44794;42.652;23.318;2023-04-03T03:16:29;10.10;;;6.93;;
59008;SDS011;44794;42.652;23.318;2023-04-03T03:18:54;10.98;;;7.03;;
59008;SDS011;44794;42.652;23.318;2023-04-03T03:21:20;11.40;;;6.90;;
59008;SDS011;44794;42.652;23.318;2023-04-03T03:23:45;10.20;;;6.70;;
59008;SDS011;44794;42.652;23.318;2023-04-03T03:26:11;11.77;;;6.95;;
59008;SDS011;44794;42.652;23.318;2023-04-03T03:28:37;12.05;;;6.63;;
59008;SDS011;44794;42.652;23.318;2023-04-03T03:31:04;11.55;;;6.35;;
59008;SDS011;44794;42.652;23.318;2023-04-03T03:33:30;8.98;;;6.25;;
59008;SDS011;44794;42.652;23.318;2023-04-03T03:35:56;10.43;;;6.15;;
59008;SDS011;44794;42.652;23.318;2023-04-03T03:38:22;13.82;;;8.65;;
59008;SDS011;44794;42.652;23.318;2023-04-03T03:40:48;10.38;;;6.65;;
59008;SDS011;44794;42.652;23.318;2023-04-03T03:43:15;11.52;;;6.88;;
59008;SDS011;44794;42.652;23.318;2023-04-03T03:45:41;9.55;;;6.88;;
59008;SDS011;44794;42.652;23.318;2023-04-03T03:48:07;16.70;;;6.95;;
59008;SDS011;44794;42.652;23.318;2023-04-03T03:50:32;13.88;;;7.20;;
59008;SDS011;44794;42.652;23.318;2023-04-03T03:52:58;9.60;;;7.32;;
59008;SDS011;44794;42.652;23.318;2023-04-03T03:55:23;11.73;;;8.10;;
59008;SDS011;44794;42.652;23.318;2023-04-03T03:57:49;13.15;;;7.93;;
59008;SDS011;44794;42.652;23.318;2023-04-03T04:00:14;13.43;;;7.40;;
59008;SDS011;44794;42.652;23.318;2023-04-03T04:02:41;15.18;;;9.35;;
59008;SDS011;44794;42.652;23.318;2023-04-03T04:05:07;13.93;;;8.52;;
59008;SDS011;44794;42.652;23.318;2023-04-03T04:07:33;13.52;;;8.27;;
59008;SDS011;44794;42.652;23.318;2023-04-03T04:09:58;10.35;;;7.88;;
59008;SDS011;44794;42.652;23.318;2023-04-03T04:12:23;13.90;;;8.27;;
59008;SDS011;44794;42.652;23.318;2023-04-03T04:14:49;12.73;;;8.52;;
59008;SDS011;44794;42.652;23.318;2023-04-03T04:17:14;15.48;;;9.55;;
59008;SDS011;44794;42.652;23.318;2023-04-03T04:19:40;15.35;;;8.20;;
59008;SDS011;44794;42.652;23.318;2023-04-03T04:22:05;15.73;;;8.52;;
59008;SDS011;44794;42.652;23.318;2023-04-03T04:24:31;14.23;;;8.45;;
59008;SDS011;44794;42.652;23.318;2023-04-03T04:26:56;18.45;;;9.57;;
59008;SDS011;44794;42.652;23.318;2023-04-03T04:29:22;16.17;;;8.48;;
59008;SDS011;44794;42.652;23.318;2023-04-03T04:31:48;17.10;;;8.60;;
59008;SDS011;44794;42.652;23.318;2023-04-03T04:34:14;21.80;;;8.45;;
59008;SDS011;44794;42.652;23.318;2023-04-03T04:36:40;18.63;;;8.75;;
59008;SDS011;44794;42.652;23.318;2023-04-03T04:39:05;18.95;;;8.55;;
59008;SDS011;44794;42.652;23.318;2023-04-03T04:41:31;18.48;;;8.48;;
59008;SDS011;44794;42.652;23.318;2023-04-03T04:43:56;15.43;;;8.00;;
59008;SDS011;44794;42.652;23.318;2023-04-03T04:46:22;20.30;;;10.23;;
59008;SDS011;44794;42.652;23.318;2023-04-03T04:48:48;21.42;;;11.15;;
59008;SDS011;44794;42.652;23.318;2023-04-03T04:51:13;21.40;;;10.50;;
59008;SDS011;44794;42.652;23.318;2023-04-03T04:53:40;19.63;;;10.18;;
59008;SDS011;44794;42.652;23.318;2023-04-03T04:56:06;22.67;;;12.07;;
59008;SDS011;44794;42.652;23.318;2023-04-03T04:58:31;24.17;;;13.48;;
59008;SDS011;44794;42.652;23.318;2023-04-03T05:01:00;22.58;;;10.73;;
59008;SDS011;44794;42.652;23.318;2023-04-03T05:03:26;18.75;;;11.45;;
59008;SDS011;44794;42.652;23.318;2023-04-03T05:05:52;32.40;;;12.73;;
59008;SDS011;44794;42.652;23.318;2023-04-03T05:08:17;23.10;;;12.60;;
59008;SDS011;44794;42.652;23.318;2023-04-03T05:10:44;22.83;;;11.60;;
59008;SDS011;44794;42.652;23.318;2023-04-03T05:13:11;21.83;;;11.35;;
59008;SDS011;44794;42.652;23.318;2023-04-03T05:15:36;22.80;;;11.27;;
59008;SDS011;44794;42.652;23.318;2023-04-03T05:18:01;34.17;;;12.55;;
59008;SDS011;44794;42.652;23.318;2023-04-03T05:20:27;47.67;;;11.70;;
59008;SDS011;44794;42.652;23.318;2023-04-03T05:22:52;52.47;;;11.02;;
59008;SDS011;44794;42.652;23.318;2023-04-03T05:25:18;51.33;;;11.15;;
59008;SDS011;44794;42.652;23.318;2023-04-03T05:27:43;52.92;;;11.05;;
59008;SDS011;44794;42.652;23.318;2023-04-03T05:30:09;53.42;;;10.45;;
59008;SDS011;44794;42.652;23.318;2023-04-03T05:32:35;54.60;;;10.70;;
59008;SDS011;44794;42.652;23.318;2023-04-03T05:35:00;38.30;;;10.75;;
59008;SDS011;44794;42.652;23.318;2023-04-03T05:37:25;33.13;;;9.40;;
59008;SDS011;44794;42.652;23.318;2023-04-03T05:39:51;35.10;;;9.90;;
59008;SDS011;44794;42.652;23.318;2023-04-03T05:42:16;21.75;;;9.23;;
59008;SDS011;44794;42.652;23.318;2023-04-03T05:44:42;19.77;;;9.27;;
59008;SDS011;44794;42.652;23.318;2023-04-03T05:47:07;21.92;;;10.38;;
59008;SDS011;44794;42.652;23.318;2023-04-03T05:49:33;17.40;;;10.43;;
59008;SDS011;44794;42.652;23.318;2023-04-03T05:51:58;29.38;;;10.85;;
59008;SDS011;44794;42.652;23.318;2023-04-03T05:54:25;31.38;;;11.35;;
59008;SDS011;44794;42.652;23.318;2023-04-03T05:56:52;27.63;;;11.00;;
59008;SDS011;44794;42.652;23.318;2023-04-03T05:59:19;24.02;;;11.02;;
59008;SDS011;44794;42.652;23.318;2023-04-03T06:01:45;26.20;;;12.35;;
59008;SDS011;44794;42.652;23.318;2023-04-03T06:04:11;31.08;;;12.93;;
59008;SDS011;44794;42.652;23.318;2023-04-03T06:09:13;23.80;;;12.25;;
59008;SDS011;44794;42.652;23.318;2023-04-03T06:11:39;25.27;;;12.48;;
59008;SDS011;44794;42.652;23.318;2023-04-03T06:14:06;24.65;;;13.00;;
59008;SDS011;44794;42.652;23.318;2023-04-03T06:16:33;26.10;;;14.00;;
59008;SDS011;44794;42.652;23.318;2023-04-03T06:18:59;32.45;;;14.77;;
59008;SDS011;44794;42.652;23.318;2023-04-03T06:21:24;35.97;;;14.57;;
59008;SDS011;44794;42.652;23.318;2023-04-03T06:23:50;32.40;;;14.73;;
59008;SDS011;44794;42.652;23.318;2023-04-03T06:26:16;31.35;;;13.43;;
59008;SDS011;44794;42.652;23.318;2023-04-03T06:28:42;22.55;;;13.30;;
59008;SDS011;44794;42.652;23.318;2023-04-03T06:31:07;29.27;;;14.23;;
59008;SDS011;44794;42.652;23.318;2023-04-03T06:33:33;27.42;;;14.40;;
59008;SDS011;44794;42.652;23.318;2023-04-03T06:36:00;27.80;;;14.80;;
59008;SDS011;44794;42.652;23.318;2023-04-03T06:38:28;29.88;;;13.52;;
59008;SDS011;44794;42.652;23.318;2023-04-03T06:40:53;33.25;;;13.75;;
59008;SDS011;44794;42.652;23.318;2023-04-03T06:43:19;37.17;;;16.27;;
59008;SDS011;44794;42.652;23.318;2023-04-03T06:45:45;28.27;;;13.95;;
59008;SDS011;44794;42.652;23.318;2023-04-03T06:48:11;27.60;;;14.30;;
59008;SDS011;44794;42.652;23.318;2023-04-03T06:50:37;38.67;;;13.90;;
59008;SDS011;44794;42.652;23.318;2023-04-03T06:53:03;28.30;;;13.05;;
59008;SDS011;44794;42.652;23.318;2023-04-03T06:55:29;22.30;;;12.35;;
59008;SDS011;44794;42.652;23.318;2023-04-03T06:57:55;22.08;;;12.02;;
59008;SDS011;44794;42.652;23.318;2023-04-03T07:00:20;23.88;;;12.85;;
59008;SDS011;44794;42.652;23.318;2023-04-03T07:02:46;22.90;;;13.07;;
59008;SDS011;44794;42.652;23.318;2023-04-03T07:05:11;21.85;;;14.23;;
59008;SDS011;44794;42.652;23.318;2023-04-03T07:07:38;25.70;;;13.88;;
59008;SDS011;44794;42.652;23.318;2023-04-03T07:10:05;21.17;;;12.80;;
59008;SDS011;44794;42.652;23.318;2023-04-03T07:12:31;27.23;;;13.38;;
59008;SDS011;44794;42.652;23.318;2023-04-03T07:14:57;29.52;;;13.32;;
59008;SDS011;44794;42.652;23.318;2023-04-03T07:17:23;26.83;;;13.52;;
59008;SDS011;44794;42.652;23.318;2023-04-03T07:19:49;29.05;;;14.35;;
59008;SDS011;44794;42.652;23.318;2023-04-03T07:22:14;22.60;;;12.90;;
59008;SDS011;44794;42.652;23.318;2023-04-03T07:24:40;20.17;;;12.25;;
59008;SDS011;44794;42.652;23.318;2023-04-03T07:27:06;19.70;;;12.48;;
59008;SDS011;44794;42.652;23.318;2023-04-03T07:29:33;18.02;;;10.50;;
59008;SDS011;44794;42.652;23.318;2023-04-03T07:31:59;16.17;;;10.50;;
59008;SDS011;44794;42.652;23.318;2023-04-03T07:34:24;16.20;;;10.30;;
59008;SDS011;44794;42.652;23.318;2023-04-03T07:36:50;17.55;;;10.40;;
59008;SDS011;44794;42.652;23.318;2023-04-03T07:39:15;19.30;;;11.20;;
59008;SDS011;44794;42.652;23.318;2023-04-03T07:41:41;21.35;;;9.43;;
59008;SDS011;44794;42.652;23.318;2023-04-03T07:44:06;14.93;;;8.57;;
59008;SDS011;44794;42.652;23.318;2023-04-03T07:46:34;16.02;;;8.95;;
59008;SDS011;44794;42.652;23.318;2023-04-03T07:49:00;17.88;;;9.88;;
59008;SDS011;44794;42.652;23.318;2023-04-03T07:51:25;18.10;;;9.98;;
59008;SDS011;44794;42.652;23.318;2023-04-03T07:53:51;16.42;;;9.60;;
59008;SDS011;44794;42.652;23.318;2023-04-03T07:56:17;14.88;;;9.93;;
59008;SDS011;44794;42.652;23.318;2023-04-03T07:58:42;12.95;;;9.70;;
59008;SDS011;44794;42.652;23.318;2023-04-03T08:01:08;15.23;;;8.88;;
59008;SDS011;44794;42.652;23.318;2023-04-03T08:03:34;20.60;;;10.27;;
59008;SDS011;44794;42.652;23.318;2023-04-03T08:06:06;19.15;;;8.77;;
59008;SDS011;44794;42.652;23.318;2023-04-03T08:08:33;18.65;;;9.48;;
59008;SDS011;44794;42.652;23.318;2023-04-03T08:10:59;15.88;;;9.68;;
59008;SDS011;44794;42.652;23.318;2023-04-03T08:13:26;12.88;;;9.05;;
59008;SDS011;44794;42.652;23.318;2023-04-03T08:15:52;18.17;;;9.40;;
59008;SDS011;44794;42.652;23.318;2023-04-03T08:18:18;14.40;;;9.32;;
59008;SDS011;44794;42.652;23.318;2023-04-03T08:20:46;14.27;;;8.80;;
59008;SDS011;44794;42.652;23.318;2023-04-03T08:23:12;16.70;;;8.65;;
59008;SDS011;44794;42.652;23.318;2023-04-03T08:25:39;18.45;;;9.75;;
59008;SDS011;44794;42.652;23.318;2023-04-03T08:28:06;20.65;;;11.55;;
59008;SDS011;44794;42.652;23.318;2023-04-03T08:30:32;25.45;;;12.85;;
59008;SDS011;44794;42.652;23.318;2023-04-03T08:32:59;19.63;;;11.70;;
59008;SDS011;44794;42.652;23.318;2023-04-03T08:35:26;26.20;;;12.90;;
59008;SDS011;44794;42.652;23.318;2023-04-03T08:37:52;25.67;;;13.48;;
59008;SDS011;44794;42.652;23.318;2023-04-03T08:40:17;36.17;;;19.50;;
59008;SDS011;44794;42.652;23.318;2023-04-03T08:45:22;30.08;;;16.42;;
59008;SDS011;44794;42.652;23.318;2023-04-03T08:48:15;20.83;;;14.55;;
59008;SDS011;44794;42.652;23.318;2023-04-03T08:50:46;26.08;;;13.52;;
59008;SDS011;44794;42.652;23.318;2023-04-03T08:53:16;25.17;;;14.35;;
59008;SDS011;44794;42.652;23.318;2023-04-03T08:55:46;37.85;;;17.02;;
59008;SDS011;44794;42.652;23.318;2023-04-03T08:58:24;31.08;;;15.23;;
59008;SDS011;44794;42.652;23.318;2023-04-03T09:03:33;23.45;;;12.30;;
59008;SDS011;44794;42.652;23.318;2023-04-03T09:06:04;22.40;;;13.23;;
59008;SDS011;44794;42.652;23.318;2023-04-03T09:08:47;23.63;;;13.40;;
59008;SDS011;44794;42.652;23.318;2023-04-03T09:17:21;23.85;;;14.57;;
59008;SDS011;44794;42.652;23.318;2023-04-03T09:22:36;18.77;;;10.27;;
59008;SDS011;44794;42.652;23.318;2023-04-03T09:27:43;15.82;;;7.22;;
59008;SDS011;44794;42.652;23.318;2023-04-03T09:30:14;12.45;;;7.10;;
59008;SDS011;44794;42.652;23.318;2023-04-03T09:32:41;18.02;;;8.23;;
59008;SDS011;44794;42.652;23.318;2023-04-03T09:37:52;5.93;;;4.07;;
59008;SDS011;44794;42.652;23.318;2023-04-03T09:42:51;10.27;;;4.10;;
59008;SDS011;44794;42.652;23.318;2023-04-03T09:45:32;4.03;;;2.60;;
59008;SDS011;44794;42.652;23.318;2023-04-03T09:50:38;7.95;;;3.17;;
59008;SDS011;44794;42.652;23.318;2023-04-03T09:53:30;6.03;;;2.70;;
59008;SDS011;44794;42.652;23.318;2023-04-03T09:56:18;3.70;;;1.98;;
59008;SDS011;44794;42.652;23.318;2023-04-03T10:01:32;4.28;;;2.30;;
59008;SDS011;44794;42.652;23.318;2023-04-03T10:06:48;3.72;;;2.08;;
59008;SDS011;44794;42.652;23.318;2023-04-03T10:09:25;3.20;;;2.20;;
59008;SDS011;44794;42.652;23.318;2023-04-03T10:12:03;2.88;;;1.90;;
59008;SDS011;44794;42.652;23.318;2023-04-03T10:14:35;9.05;;;2.47;;
59008;SDS011;44794;42.652;23.318;2023-04-03T10:34:10;10.30;;;3.85;;
59008;SDS011;44794;42.652;23.318;2023-04-03T10:37:14;3.53;;;2.80;;
59008;SDS011;44794;42.652;23.318;2023-04-03T10:39:53;6.65;;;2.95;;
59008;SDS011;44794;42.652;23.318;2023-04-03T10:51:28;9.43;;;2.85;;
59008;SDS011;44794;42.652;23.318;2023-04-03T10:56:46;4.15;;;2.70;;
59008;SDS011;44794;42.652;23.318;2023-04-03T10:59:16;6.35;;;2.80;;
59008;SDS011;44794;42.652;23.318;2023-04-03T11:10:51;8.00;;;3.42;;
59008;SDS011;44794;42.652;23.318;2023-04-03T11:13:26;5.32;;;3.88;;
59008;SDS011;44794;42.652;23.318;2023-04-03T11:15:59;9.05;;;3.50;;
59008;SDS011;44794;42.652;23.318;2023-04-03T11:18:27;7.43;;;4.18;;
59008;SDS011;44794;42.652;23.318;2023-04-03T11:23:49;7.45;;;4.32;;
59008;SDS011;44794;42.652;23.318;2023-04-03T11:26:21;5.13;;;4.18;;
59008;SDS011;44794;42.652;23.318;2023-04-03T11:28:56;7.63;;;4.18;;
59008;SDS011;44794;42.652;23.318;2023-04-03T11:34:06;5.50;;;4.22;;
59008;SDS011;44794;42.652;23.318;2023-04-03T11:36:52;7.05;;;4.93;;
59008;SDS011;44794;42.652;23.318;2023-04-03T11:47:52;11.02;;;6.40;;
59008;SDS011;44794;42.652;23.318;2023-04-03T12:05:53;8.35;;;6.28;;
59008;SDS011;44794;42.652;23.318;2023-04-03T12:16:05;8.70;;;6.70;;
59008;SDS011;44794;42.652;23.318;2023-04-03T12:26:36;11.48;;;8.43;;
59008;SDS011;44794;42.652;23.318;2023-04-03T12:41:04;11.35;;;7.40;;
59008;SDS011;44794;42.652;23.318;2023-04-03T12:43:49;11.30;;;7.53;;
59008;SDS011;44794;42.652;23.318;2023-04-03T12:46:19;14.90;;;8.57;;
59008;SDS011;44794;42.652;23.318;2023-04-03T12:48:54;11.68;;;7.85;;
59008;SDS011;44794;42.652;23.318;2023-04-03T12:51:37;12.55;;;8.57;;
59008;SDS011;44794;42.652;23.318;2023-04-03T12:56:49;13.60;;;10.25;;
59008;SDS011;44794;42.652;23.318;2023-04-03T13:01:43;16.73;;;10.13;;
59008;SDS011;44794;42.652;23.318;2023-04-03T13:04:17;12.07;;;9.02;;
59008;SDS011;44794;42.652;23.318;2023-04-03T13:06:43;15.93;;;9.73;;
59008;SDS011;44794;42.652;23.318;2023-04-03T13:09:20;15.15;;;9.30;;
59008;SDS011;44794;42.652;23.318;2023-04-03T13:11:47;13.18;;;8.88;;
59008;SDS011;44794;42.652;23.318;2023-04-03T13:14:21;14.48;;;8.95;;
59008;SDS011;44794;42.652;23.318;2023-04-03T13:19:22;13.52;;;9.50;;
59008;SDS011;44794;42.652;23.318;2023-04-03T13:21:50;13.20;;;9.05;;
59008;SDS011;44794;42.652;23.318;2023-04-03T13:24:28;12.73;;;9.50;;
59008;SDS011;44794;42.652;23.318;2023-04-03T13:26:56;12.27;;;9.43;;
59008;SDS011;44794;42.652;23.318;2023-04-03T13:29:24;18.58;;;11.23;;
59008;SDS011;44794;42.652;23.318;2023-04-03T13:31:54;14.95;;;10.68;;
59008;SDS011;44794;42.652;23.318;2023-04-03T13:34:21;15.02;;;10.70;;
59008;SDS011;44794;42.652;23.318;2023-04-03T13:39:30;14.30;;;10.55;;
59008;SDS011;44794;42.652;23.318;2023-04-03T13:41:59;14.63;;;11.70;;
59008;SDS011;44794;42.652;23.318;2023-04-03T13:44:34;22.25;;;12.02;;
59008;SDS011;44794;42.652;23.318;2023-04-03T13:55:01;16.88;;;12.20;;
59008;SDS011;44794;42.652;23.318;2023-04-03T13:57:50;17.27;;;13.00;;
59008;SDS011;44794;42.652;23.318;2023-04-03T14:00:31;22.23;;;13.93;;
59008;SDS011;44794;42.652;23.318;2023-04-03T14:03:00;18.75;;;13.30;;
59008;SDS011;44794;42.652;23.318;2023-04-03T14:05:25;19.58;;;13.68;;
59008;SDS011;44794;42.652;23.318;2023-04-03T14:07:52;22.05;;;14.13;;
59008;SDS011;44794;42.652;23.318;2023-04-03T14:10:19;19.60;;;14.35;;
59008;SDS011;44794;42.652;23.318;2023-04-03T14:12:45;16.77;;;12.77;;
59008;SDS011;44794;42.652;23.318;2023-04-03T14:15:24;14.60;;;11.27;;
59008;SDS011;44794;42.652;23.318;2023-04-03T14:17:53;15.10;;;10.68;;
59008;SDS011;44794;42.652;23.318;2023-04-03T14:20:22;19.08;;;11.90;;
59008;SDS011;44794;42.652;23.318;2023-04-03T14:22:50;14.70;;;12.02;;
59008;SDS011;44794;42.652;23.318;2023-04-03T14:25:16;15.10;;;11.57;;
59008;SDS011;44794;42.652;23.318;2023-04-03T14:27:44;13.18;;;10.57;;
59008;SDS011;44794;42.652;23.318;2023-04-03T14:30:15;10.15;;;8.32;;
59008;SDS011;44794;42.652;23.318;2023-04-03T14:32:51;10.52;;;8.70;;
59008;SDS011;44794;42.652;23.318;2023-04-03T14:35:17;10.48;;;7.55;;
59008;SDS011;44794;42.652;23.318;2023-04-03T14:37:44;7.80;;;6.80;;
59008;SDS011;44794;42.652;23.318;2023-04-03T14:40:18;7.60;;;5.82;;
59008;SDS011;44794;42.652;23.318;2023-04-03T14:42:46;10.25;;;6.93;;
59008;SDS011;44794;42.652;23.318;2023-04-03T14:45:14;8.95;;;6.97;;
59008;SDS011;44794;42.652;23.318;2023-04-03T14:47:42;8.63;;;7.32;;
59008;SDS011;44794;42.652;23.318;2023-04-03T14:50:13;11.23;;;8.27;;
59008;SDS011;44794;42.652;23.318;2023-04-03T14:52:43;11.05;;;8.68;;
59008;SDS011;44794;42.652;23.318;2023-04-03T14:55:11;9.02;;;7.38;;
59008;SDS011;44794;42.652;23.318;2023-04-03T14:57:38;9.45;;;7.32;;
59008;SDS011;44794;42.652;23.318;2023-04-03T15:00:04;10.88;;;8.13;;
59008;SDS011;44794;42.652;23.318;2023-04-03T15:02:34;14.15;;;7.75;;
59008;SDS011;44794;42.652;23.318;2023-04-03T15:05:02;10.98;;;7.72;;
59008;SDS011;44794;42.652;23.318;2023-04-03T15:07:30;10.25;;;8.10;;
59008;SDS011;44794;42.652;23.318;2023-04-03T15:10:00;10.00;;;6.82;;
59008;SDS011;44794;42.652;23.318;2023-04-03T15:12:28;8.98;;;7.07;;
59008;SDS011;44794;42.652;23.318;2023-04-03T15:14:54;8.43;;;6.88;;
59008;SDS011;44794;42.652;23.318;2023-04-03T15:17:21;11.82;;;7.93;;
59008;SDS011;44794;42.652;23.318;2023-04-03T15:19:47;10.07;;;7.88;;
59008;SDS011;44794;42.652;23.318;2023-04-03T15:22:14;9.98;;;7.63;;
59008;SDS011;44794;42.652;23.318;2023-04-03T15:24:41;9.82;;;8.13;;
59008;SDS011;44794;42.652;23.318;2023-04-03T15:27:07;10.95;;;8.27;;
59008;SDS011;44794;42.652;23.318;2023-04-03T15:29:33;11.52;;;8.18;;
59008;SDS011;44794;42.652;23.318;2023-04-03T15:31:59;11.27;;;8.77;;
59008;SDS011;44794;42.652;23.318;2023-04-03T15:34:25;14.10;;;9.15;;
59008;SDS011;44794;42.652;23.318;2023-04-03T15:36:50;12.82;;;8.93;;
59008;SDS011;44794;42.652;23.318;2023-04-03T15:39:18;12.70;;;10.25;;
59008;SDS011;44794;42.652;23.318;2023-04-03T15:41:45;10.63;;;8.98;;
59008;SDS011;44794;42.652;23.318;2023-04-03T15:44:11;13.32;;;9.38;;
59008;SDS011;44794;42.652;23.318;2023-04-03T15:46:37;14.02;;;11.23;;
59008;SDS011;44794;42.652;23.318;2023-04-03T15:49:03;19.70;;;11.45;;
59008;SDS011;44794;42.652;23.318;2023-04-03T15:51:30;18.15;;;13.63;;
59008;SDS011;44794;42.652;23.318;2023-04-03T15:53:56;15.43;;;12.30;;
59008;SDS011;44794;42.652;23.318;2023-04-03T15:56:21;16.25;;;12.20;;
59008;SDS011;44794;42.652;23.318;2023-04-03T15:58:47;13.75;;;9.90;;
59008;SDS011;44794;42.652;23.318;2023-04-03T16:01:12;17.70;;;12.35;;
59008;SDS011;44794;42.652;23.318;2023-04-03T16:03:39;17.27;;;12.68;;
59008;SDS011;44794;42.652;23.318;2023-04-03T16:06:10;16.60;;;11.98;;
59008;SDS011;44794;42.652;23.318;2023-04-03T16:08:37;13.93;;;11.18;;
59008;SDS011;44794;42.652;23.318;2023-04-03T16:11:02;21.48;;;13.65;;
59008;SDS011;44794;42.652;23.318;2023-04-03T16:13:28;15.52;;;11.77;;
59008;SDS011;44794;42.652;23.318;2023-04-03T16:15:54;17.08;;;12.57;;
59008;SDS011;44794;42.652;23.318;2023-04-03T16:18:20;17.00;;;12.15;;
59008;SDS011;44794;42.652;23.318;2023-04-03T16:20:45;18.55;;;13.13;;
59008;SDS011;44794;42.652;23.318;2023-04-03T16:23:11;21.42;;;13.35;;
59008;SDS011;44794;42.652;23.318;2023-04-03T16:25:37;15.80;;;11.02;;
59008;SDS011;44794;42.652;23.318;2023-04-03T16:28:02;15.00;;;10.38;;
59008;SDS011;44794;42.652;23.318;2023-04-03T16:30:28;14.82;;;10.23;;
59008;SDS011;44794;42.652;23.318;2023-04-03T16:32:54;17.50;;;10.68;;
59008;SDS011;44794;42.652;23.318;2023-04-03T16:35:20;14.52;;;10.38;;
59008;SDS011;44794;42.652;23.318;2023-04-03T16:37:47;14.77;;;9.80;;
59008;SDS011;44794;42.652;23.318;2023-04-03T16:40:13;14.50;;;8.57;;
59008;SDS011;44794;42.652;23.318;2023-04-03T16:42:39;9.73;;;6.68;;
59008;SDS011;44794;42.652;23.318;2023-04-03T16:45:05;10.05;;;5.70;;
59008;SDS011;44794;42.652;23.318;2023-04-03T16:47:32;11.25;;;7.60;;
59008;SDS011;44794;42.652;23.318;2023-04-03T16:49:57;13.63;;;8.80;;
59008;SDS011;44794;42.652;23.318;2023-04-03T16:52:23;7.40;;;5.75;;
59008;SDS011;44794;42.652;23.318;2023-04-03T16:54:48;6.72;;;5.55;;